sensor_id;sensor_type;location;lat;lon;timestamp;P1;durP1;ratioP1;P2;durP2;ratioP2
74503;SDS011;62988;55.776;37.544;2023-08-01T00:01:08;31.55;;;8.55;;
74503;SDS011;62988;55.776;37.544;2023-08-01T00:03:33;37.70;;;8.43;;
74503;SDS011;62988;55.776;37.544;2023-08-01T00:05:58;24.23;;;8.50;;
74503;SDS011;62988;55.776;37.544;2023-08-01T00:08:24;24.93;;;8.03;;
74503;SDS011;62988;55.776;37.544;2023-08-01T00:10:49;35.03;;;9.10;;
74503;SDS011;62988;55.776;37.544;2023-08-01T00:13:14;34.05;;;8.13;;
74503;SDS011;62988;55.776;37.544;2023-08-01T00:15:40;28.63;;;8.37;;
74503;SDS011;62988;55.776;37.544;2023-08-01T00:18:05;22.83;;;7.17;;
74503;SDS011;62988;55.776;37.544;2023-08-01T00:20:30;40.77;;;8.37;;
74503;SDS011;62988;55.776;37.544;2023-08-01T00:22:56;20.20;;;7.00;;
74503;SDS011;62988;55.776;37.544;2023-08-01T00:25:21;25.73;;;6.80;;
74503;SDS011;62988;55.776;37.544;2023-08-01T00:27:46;28.07;;;8.13;;
74503;SDS011;62988;55.776;37.544;2023-08-01T00:30:12;25.08;;;8.32;;
74503;SDS011;62988;55.776;37.544;2023-08-01T00:32:37;34.27;;;8.20;;
74503;SDS011;62988;55.776;37.544;2023-08-01T00:35:03;25.30;;;7.30;;
74503;SDS011;62988;55.776;37.544;2023-08-01T00:37:28;21.15;;;7.05;;
74503;SDS011;62988;55.776;37.544;2023-08-01T00:39:54;27.50;;;7.63;;
74503;SDS011;62988;55.776;37.544;2023-08-01T00:42:19;26.57;;;7.60;;
74503;SDS011;62988;55.776;37.544;2023-08-01T00:44:44;20.10;;;6.77;;
74503;SDS011;62988;55.776;37.544;2023-08-01T00:47:11;20.95;;;6.60;;
74503;SDS011;62988;55.776;37.544;2023-08-01T00:49:37;20.35;;;6.57;;
74503;SDS011;62988;55.776;37.544;2023-08-01T00:52:02;19.83;;;6.57;;
74503;SDS011;62988;55.776;37.544;2023-08-01T00:54:28;20.42;;;6.72;;
74503;SDS011;62988;55.776;37.544;2023-08-01T00:57:03;24.70;;;6.80;;
74503;SDS011;62988;55.776;37.544;2023-08-01T00:59:28;19.35;;;7.60;;
74503;SDS011;62988;55.776;37.544;2023-08-01T01:01:54;36.15;;;8.27;;
74503;SDS011;62988;55.776;37.544;2023-08-01T01:04:19;21.13;;;6.93;;
74503;SDS011;62988;55.776;37.544;2023-08-01T01:06:45;25.67;;;7.00;;
74503;SDS011;62988;55.776;37.544;2023-08-01T01:09:18;32.30;;;9.23;;
74503;SDS011;62988;55.776;37.544;2023-08-01T01:11:44;19.83;;;7.05;;
74503;SDS011;62988;55.776;37.544;2023-08-01T01:14:09;34.10;;;8.68;;
74503;SDS011;62988;55.776;37.544;2023-08-01T01:16:34;30.93;;;7.67;;
74503;SDS011;62988;55.776;37.544;2023-08-01T01:19:00;27.10;;;7.70;;
74503;SDS011;62988;55.776;37.544;2023-08-01T01:21:25;42.10;;;9.80;;
74503;SDS011;62988;55.776;37.544;2023-08-01T01:23:50;36.67;;;8.67;;
74503;SDS011;62988;55.776;37.544;2023-08-01T01:26:16;41.63;;;8.32;;
74503;SDS011;62988;55.776;37.544;2023-08-01T01:28:46;31.75;;;8.20;;
74503;SDS011;62988;55.776;37.544;2023-08-01T01:31:12;32.95;;;9.07;;
74503;SDS011;62988;55.776;37.544;2023-08-01T01:33:38;16.52;;;6.50;;
74503;SDS011;62988;55.776;37.544;2023-08-01T01:36:03;24.25;;;8.35;;
74503;SDS011;62988;55.776;37.544;2023-08-01T01:38:29;28.10;;;8.27;;
74503;SDS011;62988;55.776;37.544;2023-08-01T01:40:54;26.03;;;6.97;;
74503;SDS011;62988;55.776;37.544;2023-08-01T01:43:19;32.17;;;9.70;;
74503;SDS011;62988;55.776;37.544;2023-08-01T01:45:45;31.57;;;7.80;;
74503;SDS011;62988;55.776;37.544;2023-08-01T01:48:10;28.87;;;8.23;;
74503;SDS011;62988;55.776;37.544;2023-08-01T01:50:35;25.13;;;7.27;;
74503;SDS011;62988;55.776;37.544;2023-08-01T01:53:01;31.07;;;7.87;;
74503;SDS011;62988;55.776;37.544;2023-08-01T01:55:26;18.00;;;6.80;;
74503;SDS011;62988;55.776;37.544;2023-08-01T01:57:51;22.07;;;7.83;;
74503;SDS011;62988;55.776;37.544;2023-08-01T02:00:17;28.03;;;7.27;;
74503;SDS011;62988;55.776;37.544;2023-08-01T02:02:42;23.27;;;6.70;;
74503;SDS011;62988;55.776;37.544;2023-08-01T02:05:07;26.47;;;7.80;;
74503;SDS011;62988;55.776;37.544;2023-08-01T02:07:33;18.83;;;6.90;;
74503;SDS011;62988;55.776;37.544;2023-08-01T02:09:59;21.55;;;6.60;;
74503;SDS011;62988;55.776;37.544;2023-08-01T02:12:24;21.27;;;6.10;;
74503;SDS011;62988;55.776;37.544;2023-08-01T02:14:50;20.15;;;6.65;;
74503;SDS011;62988;55.776;37.544;2023-08-01T02:17:15;16.63;;;6.23;;
74503;SDS011;62988;55.776;37.544;2023-08-01T02:19:41;28.50;;;6.70;;
74503;SDS011;62988;55.776;37.544;2023-08-01T02:22:06;22.95;;;8.45;;
74503;SDS011;62988;55.776;37.544;2023-08-01T02:24:31;17.67;;;7.35;;
74503;SDS011;62988;55.776;37.544;2023-08-01T02:26:57;26.97;;;7.13;;
74503;SDS011;62988;55.776;37.544;2023-08-01T02:29:22;18.30;;;7.23;;
74503;SDS011;62988;55.776;37.544;2023-08-01T02:31:47;20.70;;;8.73;;
74503;SDS011;62988;55.776;37.544;2023-08-01T02:34:13;27.13;;;7.28;;
74503;SDS011;62988;55.776;37.544;2023-08-01T02:36:38;20.80;;;7.80;;
74503;SDS011;62988;55.776;37.544;2023-08-01T02:39:05;26.77;;;8.05;;
74503;SDS011;62988;55.776;37.544;2023-08-01T02:41:31;22.92;;;7.30;;
74503;SDS011;62988;55.776;37.544;2023-08-01T02:43:56;18.80;;;6.75;;
74503;SDS011;62988;55.776;37.544;2023-08-01T02:46:21;26.33;;;8.10;;
74503;SDS011;62988;55.776;37.544;2023-08-01T02:48:47;22.43;;;7.50;;
74503;SDS011;62988;55.776;37.544;2023-08-01T02:51:12;30.70;;;7.90;;
74503;SDS011;62988;55.776;37.544;2023-08-01T02:53:37;30.13;;;8.20;;
74503;SDS011;62988;55.776;37.544;2023-08-01T02:56:05;27.85;;;6.70;;
74503;SDS011;62988;55.776;37.544;2023-08-01T02:58:32;26.52;;;7.53;;
74503;SDS011;62988;55.776;37.544;2023-08-01T03:00:57;31.10;;;8.43;;
74503;SDS011;62988;55.776;37.544;2023-08-01T03:03:23;34.67;;;7.97;;
74503;SDS011;62988;55.776;37.544;2023-08-01T03:05:48;29.47;;;8.73;;
74503;SDS011;62988;55.776;37.544;2023-08-01T03:08:13;47.40;;;11.27;;
74503;SDS011;62988;55.776;37.544;2023-08-01T03:10:39;32.53;;;8.83;;
74503;SDS011;62988;55.776;37.544;2023-08-01T03:13:04;29.27;;;8.93;;
74503;SDS011;62988;55.776;37.544;2023-08-01T03:15:29;46.03;;;11.60;;
74503;SDS011;62988;55.776;37.544;2023-08-01T03:17:55;29.33;;;8.63;;
74503;SDS011;62988;55.776;37.544;2023-08-01T03:20:20;23.13;;;7.60;;
74503;SDS011;62988;55.776;37.544;2023-08-01T03:22:45;29.50;;;9.03;;
74503;SDS011;62988;55.776;37.544;2023-08-01T03:25:11;37.83;;;9.93;;
74503;SDS011;62988;55.776;37.544;2023-08-01T03:27:36;33.67;;;9.70;;
74503;SDS011;62988;55.776;37.544;2023-08-01T03:30:02;24.47;;;7.77;;
74503;SDS011;62988;55.776;37.544;2023-08-01T03:32:29;35.45;;;9.63;;
74503;SDS011;62988;55.776;37.544;2023-08-01T03:34:55;26.00;;;8.80;;
74503;SDS011;62988;55.776;37.544;2023-08-01T03:37:20;28.27;;;9.03;;
74503;SDS011;62988;55.776;37.544;2023-08-01T03:39:45;27.37;;;8.87;;
74503;SDS011;62988;55.776;37.544;2023-08-01T03:42:11;26.50;;;9.00;;
74503;SDS011;62988;55.776;37.544;2023-08-01T03:44:36;32.30;;;9.87;;
74503;SDS011;62988;55.776;37.544;2023-08-01T03:47:01;22.90;;;9.00;;
74503;SDS011;62988;55.776;37.544;2023-08-01T03:49:27;26.42;;;8.93;;
74503;SDS011;62988;55.776;37.544;2023-08-01T03:51:52;24.23;;;8.77;;
74503;SDS011;62988;55.776;37.544;2023-08-01T03:54:18;27.23;;;8.93;;
74503;SDS011;62988;55.776;37.544;2023-08-01T03:56:43;21.27;;;7.27;;
74503;SDS011;62988;55.776;37.544;2023-08-01T03:59:09;31.20;;;8.95;;
74503;SDS011;62988;55.776;37.544;2023-08-01T04:01:35;30.20;;;10.00;;
74503;SDS011;62988;55.776;37.544;2023-08-01T04:04:00;21.70;;;8.02;;
74503;SDS011;62988;55.776;37.544;2023-08-01T04:06:26;36.83;;;9.37;;
74503;SDS011;62988;55.776;37.544;2023-08-01T04:08:51;27.60;;;9.47;;
74503;SDS011;62988;55.776;37.544;2023-08-01T04:11:17;26.75;;;8.85;;
74503;SDS011;62988;55.776;37.544;2023-08-01T04:13:42;31.83;;;9.02;;
74503;SDS011;62988;55.776;37.544;2023-08-01T04:16:08;27.00;;;8.77;;
74503;SDS011;62988;55.776;37.544;2023-08-01T04:18:33;29.47;;;9.10;;
74503;SDS011;62988;55.776;37.544;2023-08-01T04:20:58;22.27;;;8.60;;
74503;SDS011;62988;55.776;37.544;2023-08-01T04:23:24;24.47;;;8.93;;
74503;SDS011;62988;55.776;37.544;2023-08-01T04:25:49;21.67;;;8.53;;
74503;SDS011;62988;55.776;37.544;2023-08-01T04:28:14;19.90;;;7.93;;
74503;SDS011;62988;55.776;37.544;2023-08-01T04:30:40;25.10;;;10.77;;
74503;SDS011;62988;55.776;37.544;2023-08-01T04:33:05;24.23;;;9.90;;
74503;SDS011;62988;55.776;37.544;2023-08-01T04:35:30;25.03;;;9.03;;
74503;SDS011;62988;55.776;37.544;2023-08-01T04:37:56;21.85;;;8.27;;
74503;SDS011;62988;55.776;37.544;2023-08-01T04:40:21;24.10;;;10.07;;
74503;SDS011;62988;55.776;37.544;2023-08-01T04:42:47;26.13;;;9.43;;
74503;SDS011;62988;55.776;37.544;2023-08-01T04:45:12;21.30;;;9.43;;
74503;SDS011;62988;55.776;37.544;2023-08-01T04:47:37;29.38;;;10.68;;
74503;SDS011;62988;55.776;37.544;2023-08-01T04:50:03;22.70;;;9.87;;
74503;SDS011;62988;55.776;37.544;2023-08-01T04:52:28;16.80;;;7.65;;
74503;SDS011;62988;55.776;37.544;2023-08-01T04:54:54;17.30;;;7.33;;
74503;SDS011;62988;55.776;37.544;2023-08-01T04:57:19;20.05;;;7.20;;
74503;SDS011;62988;55.776;37.544;2023-08-01T04:59:44;14.57;;;8.10;;
74503;SDS011;62988;55.776;37.544;2023-08-01T05:02:10;14.83;;;8.27;;
74503;SDS011;62988;55.776;37.544;2023-08-01T05:04:35;25.30;;;9.03;;
74503;SDS011;62988;55.776;37.544;2023-08-01T05:07:00;16.80;;;7.13;;
74503;SDS011;62988;55.776;37.544;2023-08-01T05:09:26;15.90;;;7.05;;
74503;SDS011;62988;55.776;37.544;2023-08-01T05:11:51;21.13;;;7.17;;
74503;SDS011;62988;55.776;37.544;2023-08-01T05:14:16;13.00;;;6.38;;
74503;SDS011;62988;55.776;37.544;2023-08-01T05:16:42;15.87;;;6.10;;
74503;SDS011;62988;55.776;37.544;2023-08-01T05:19:07;11.37;;;5.40;;
74503;SDS011;62988;55.776;37.544;2023-08-01T05:21:32;16.60;;;6.13;;
74503;SDS011;62988;55.776;37.544;2023-08-01T05:23:58;12.50;;;5.40;;
74503;SDS011;62988;55.776;37.544;2023-08-01T05:26:23;19.63;;;4.87;;
74503;SDS011;62988;55.776;37.544;2023-08-01T05:28:48;12.40;;;4.80;;
74503;SDS011;62988;55.776;37.544;2023-08-01T05:31:14;17.52;;;5.40;;
74503;SDS011;62988;55.776;37.544;2023-08-01T05:33:39;14.03;;;5.97;;
74503;SDS011;62988;55.776;37.544;2023-08-01T05:36:04;9.57;;;5.30;;
74503;SDS011;62988;55.776;37.544;2023-08-01T05:38:30;12.52;;;5.13;;
74503;SDS011;62988;55.776;37.544;2023-08-01T05:40:55;12.10;;;4.93;;
74503;SDS011;62988;55.776;37.544;2023-08-01T05:43:21;12.95;;;5.80;;
74503;SDS011;62988;55.776;37.544;2023-08-01T05:45:46;11.57;;;5.47;;
74503;SDS011;62988;55.776;37.544;2023-08-01T05:48:11;13.67;;;4.87;;
74503;SDS011;62988;55.776;37.544;2023-08-01T05:50:38;9.35;;;5.20;;
74503;SDS011;62988;55.776;37.544;2023-08-01T05:53:04;13.40;;;5.22;;
74503;SDS011;62988;55.776;37.544;2023-08-01T05:55:29;13.23;;;5.70;;
74503;SDS011;62988;55.776;37.544;2023-08-01T05:57:54;13.15;;;5.20;;
74503;SDS011;62988;55.776;37.544;2023-08-01T06:00:20;15.65;;;5.22;;
74503;SDS011;62988;55.776;37.544;2023-08-01T06:02:46;12.15;;;4.93;;
74503;SDS011;62988;55.776;37.544;2023-08-01T06:05:11;6.72;;;4.25;;
74503;SDS011;62988;55.776;37.544;2023-08-01T06:07:37;9.07;;;5.00;;
74503;SDS011;62988;55.776;37.544;2023-08-01T06:10:02;13.83;;;5.10;;
74503;SDS011;62988;55.776;37.544;2023-08-01T06:12:29;13.27;;;5.78;;
74503;SDS011;62988;55.776;37.544;2023-08-01T06:14:54;8.10;;;4.75;;
74503;SDS011;62988;55.776;37.544;2023-08-01T06:17:20;6.33;;;3.43;;
74503;SDS011;62988;55.776;37.544;2023-08-01T06:19:45;6.43;;;3.55;;
74503;SDS011;62988;55.776;37.544;2023-08-01T06:22:11;7.65;;;3.47;;
74503;SDS011;62988;55.776;37.544;2023-08-01T06:24:36;7.25;;;3.70;;
74503;SDS011;62988;55.776;37.544;2023-08-01T06:27:02;13.30;;;4.97;;
74503;SDS011;62988;55.776;37.544;2023-08-01T06:29:27;8.77;;;3.65;;
74503;SDS011;62988;55.776;37.544;2023-08-01T06:31:52;9.70;;;3.53;;
74503;SDS011;62988;55.776;37.544;2023-08-01T06:34:18;10.03;;;4.13;;
74503;SDS011;62988;55.776;37.544;2023-08-01T06:36:43;9.65;;;4.25;;
74503;SDS011;62988;55.776;37.544;2023-08-01T06:39:08;8.15;;;4.30;;
74503;SDS011;62988;55.776;37.544;2023-08-01T06:41:34;4.67;;;3.03;;
74503;SDS011;62988;55.776;37.544;2023-08-01T06:43:59;9.07;;;3.20;;
74503;SDS011;62988;55.776;37.544;2023-08-01T06:46:24;9.93;;;3.20;;
74503;SDS011;62988;55.776;37.544;2023-08-01T06:48:50;8.10;;;3.07;;
74503;SDS011;62988;55.776;37.544;2023-08-01T06:51:15;6.83;;;3.80;;
74503;SDS011;62988;55.776;37.544;2023-08-01T06:53:40;6.93;;;2.57;;
74503;SDS011;62988;55.776;37.544;2023-08-01T06:56:06;6.90;;;3.33;;
74503;SDS011;62988;55.776;37.544;2023-08-01T06:58:31;8.60;;;3.13;;
74503;SDS011;62988;55.776;37.544;2023-08-01T07:00:57;5.57;;;2.83;;
74503;SDS011;62988;55.776;37.544;2023-08-01T07:03:22;7.13;;;3.00;;
74503;SDS011;62988;55.776;37.544;2023-08-01T07:05:47;11.73;;;3.33;;
74503;SDS011;62988;55.776;37.544;2023-08-01T07:08:13;8.60;;;3.13;;
74503;SDS011;62988;55.776;37.544;2023-08-01T07:10:38;4.82;;;3.55;;
74503;SDS011;62988;55.776;37.544;2023-08-01T07:13:03;6.33;;;3.10;;
74503;SDS011;62988;55.776;37.544;2023-08-01T07:15:32;5.28;;;3.03;;
74503;SDS011;62988;55.776;37.544;2023-08-01T07:17:57;7.38;;;3.00;;
74503;SDS011;62988;55.776;37.544;2023-08-01T07:20:22;5.60;;;2.83;;
74503;SDS011;62988;55.776;37.544;2023-08-01T07:22:48;4.07;;;2.65;;
74503;SDS011;62988;55.776;37.544;2023-08-01T07:25:13;5.47;;;2.47;;
74503;SDS011;62988;55.776;37.544;2023-08-01T07:27:38;3.83;;;2.70;;
74503;SDS011;62988;55.776;37.544;2023-08-01T07:30:04;7.15;;;2.72;;
74503;SDS011;62988;55.776;37.544;2023-08-01T07:32:30;5.35;;;3.13;;
74503;SDS011;62988;55.776;37.544;2023-08-01T07:34:55;7.75;;;2.80;;
74503;SDS011;62988;55.776;37.544;2023-08-01T07:37:21;5.70;;;2.83;;
74503;SDS011;62988;55.776;37.544;2023-08-01T07:39:46;6.55;;;2.50;;
74503;SDS011;62988;55.776;37.544;2023-08-01T07:42:11;5.07;;;2.60;;
74503;SDS011;62988;55.776;37.544;2023-08-01T07:44:37;9.47;;;2.90;;
74503;SDS011;62988;55.776;37.544;2023-08-01T07:47:02;6.07;;;3.37;;
74503;SDS011;62988;55.776;37.544;2023-08-01T07:49:28;5.88;;;2.78;;
74503;SDS011;62988;55.776;37.544;2023-08-01T07:51:53;8.57;;;2.95;;
74503;SDS011;62988;55.776;37.544;2023-08-01T07:54:18;6.82;;;2.88;;
74503;SDS011;62988;55.776;37.544;2023-08-01T07:56:44;4.22;;;2.05;;
74503;SDS011;62988;55.776;37.544;2023-08-01T07:59:10;6.82;;;3.08;;
74503;SDS011;62988;55.776;37.544;2023-08-01T08:01:36;6.57;;;3.17;;
74503;SDS011;62988;55.776;37.544;2023-08-01T08:04:01;7.33;;;3.03;;
74503;SDS011;62988;55.776;37.544;2023-08-01T08:06:26;5.27;;;2.67;;
74503;SDS011;62988;55.776;37.544;2023-08-01T08:08:52;7.88;;;3.67;;
74503;SDS011;62988;55.776;37.544;2023-08-01T08:11:17;6.50;;;3.00;;
74503;SDS011;62988;55.776;37.544;2023-08-01T08:13:42;4.97;;;3.07;;
74503;SDS011;62988;55.776;37.544;2023-08-01T08:16:08;5.22;;;2.92;;
74503;SDS011;62988;55.776;37.544;2023-08-01T08:18:33;8.70;;;3.30;;
74503;SDS011;62988;55.776;37.544;2023-08-01T08:20:58;6.77;;;3.03;;
74503;SDS011;62988;55.776;37.544;2023-08-01T08:23:24;6.53;;;3.58;;
74503;SDS011;62988;55.776;37.544;2023-08-01T08:25:49;9.63;;;3.00;;
74503;SDS011;62988;55.776;37.544;2023-08-01T08:28:16;7.10;;;3.40;;
74503;SDS011;62988;55.776;37.544;2023-08-01T08:30:41;5.65;;;3.15;;
74503;SDS011;62988;55.776;37.544;2023-08-01T08:33:06;7.67;;;3.37;;
74503;SDS011;62988;55.776;37.544;2023-08-01T08:35:32;5.60;;;2.80;;
74503;SDS011;62988;55.776;37.544;2023-08-01T08:37:59;6.97;;;3.28;;
74503;SDS011;62988;55.776;37.544;2023-08-01T08:40:25;8.75;;;2.97;;
74503;SDS011;62988;55.776;37.544;2023-08-01T08:42:52;7.35;;;2.92;;
74503;SDS011;62988;55.776;37.544;2023-08-01T08:45:18;7.95;;;3.15;;
74503;SDS011;62988;55.776;37.544;2023-08-01T08:47:44;6.78;;;3.33;;
74503;SDS011;62988;55.776;37.544;2023-08-01T08:50:09;7.75;;;3.53;;
74503;SDS011;62988;55.776;37.544;2023-08-01T08:52:35;5.72;;;3.13;;
74503;SDS011;62988;55.776;37.544;2023-08-01T08:55:01;5.03;;;3.00;;
74503;SDS011;62988;55.776;37.544;2023-08-01T08:57:27;3.88;;;2.78;;
74503;SDS011;62988;55.776;37.544;2023-08-01T08:59:53;5.95;;;3.10;;
74503;SDS011;62988;55.776;37.544;2023-08-01T09:02:19;6.13;;;3.25;;
74503;SDS011;62988;55.776;37.544;2023-08-01T09:04:45;8.32;;;3.05;;
74503;SDS011;62988;55.776;37.544;2023-08-01T09:07:10;6.90;;;3.00;;
74503;SDS011;62988;55.776;37.544;2023-08-01T09:09:38;5.80;;;2.80;;
74503;SDS011;62988;55.776;37.544;2023-08-01T09:12:04;6.80;;;2.70;;
74503;SDS011;62988;55.776;37.544;2023-08-01T09:14:29;4.68;;;2.92;;
74503;SDS011;62988;55.776;37.544;2023-08-01T09:17:05;7.78;;;3.30;;
74503;SDS011;62988;55.776;37.544;2023-08-01T09:19:30;5.32;;;2.75;;
74503;SDS011;62988;55.776;37.544;2023-08-01T09:21:55;5.43;;;3.43;;
74503;SDS011;62988;55.776;37.544;2023-08-01T09:24:21;5.13;;;2.90;;
74503;SDS011;62988;55.776;37.544;2023-08-01T09:26:47;5.57;;;3.20;;
74503;SDS011;62988;55.776;37.544;2023-08-01T09:29:12;8.50;;;3.03;;
74503;SDS011;62988;55.776;37.544;2023-08-01T09:31:38;5.33;;;3.17;;
74503;SDS011;62988;55.776;37.544;2023-08-01T09:34:05;7.05;;;3.50;;
74503;SDS011;62988;55.776;37.544;2023-08-01T09:36:30;4.70;;;3.00;;
74503;SDS011;62988;55.776;37.544;2023-08-01T09:39:00;7.50;;;3.00;;
74503;SDS011;62988;55.776;37.544;2023-08-01T09:41:25;7.38;;;3.15;;
74503;SDS011;62988;55.776;37.544;2023-08-01T09:43:51;5.57;;;3.20;;
74503;SDS011;62988;55.776;37.544;2023-08-01T09:46:16;7.32;;;3.30;;
74503;SDS011;62988;55.776;37.544;2023-08-01T09:48:41;4.77;;;3.20;;
74503;SDS011;62988;55.776;37.544;2023-08-01T09:51:07;5.93;;;3.17;;
74503;SDS011;62988;55.776;37.544;2023-08-01T09:53:33;4.63;;;3.03;;
74503;SDS011;62988;55.776;37.544;2023-08-01T09:56:02;6.75;;;3.17;;
74503;SDS011;62988;55.776;37.544;2023-08-01T09:58:31;9.40;;;3.20;;
74503;SDS011;62988;55.776;37.544;2023-08-01T10:00:58;7.05;;;2.90;;
74503;SDS011;62988;55.776;37.544;2023-08-01T10:03:23;7.18;;;2.90;;
74503;SDS011;62988;55.776;37.544;2023-08-01T10:05:48;6.47;;;3.00;;
74503;SDS011;62988;55.776;37.544;2023-08-01T10:08:18;5.03;;;2.65;;
74503;SDS011;62988;55.776;37.544;2023-08-01T10:10:44;5.22;;;2.75;;
74503;SDS011;62988;55.776;37.544;2023-08-01T10:13:10;8.57;;;3.33;;
74503;SDS011;62988;55.776;37.544;2023-08-01T10:15:38;6.60;;;3.50;;
74503;SDS011;62988;55.776;37.544;2023-08-01T10:18:04;9.88;;;3.53;;
74503;SDS011;62988;55.776;37.544;2023-08-01T10:20:29;7.40;;;3.05;;
74503;SDS011;62988;55.776;37.544;2023-08-01T10:22:55;6.35;;;2.88;;
74503;SDS011;62988;55.776;37.544;2023-08-01T10:25:20;7.72;;;3.28;;
74503;SDS011;62988;55.776;37.544;2023-08-01T10:27:57;6.97;;;3.10;;
74503;SDS011;62988;55.776;37.544;2023-08-01T10:30:25;6.90;;;3.13;;
74503;SDS011;62988;55.776;37.544;2023-08-01T10:32:53;5.43;;;3.10;;
74503;SDS011;62988;55.776;37.544;2023-08-01T10:35:19;5.57;;;3.20;;
74503;SDS011;62988;55.776;37.544;2023-08-01T10:37:45;4.53;;;2.90;;
74503;SDS011;62988;55.776;37.544;2023-08-01T10:40:12;6.70;;;3.63;;
74503;SDS011;62988;55.776;37.544;2023-08-01T10:42:38;7.22;;;3.50;;
74503;SDS011;62988;55.776;37.544;2023-08-01T10:45:04;4.88;;;3.17;;
74503;SDS011;62988;55.776;37.544;2023-08-01T10:47:29;7.47;;;3.13;;
74503;SDS011;62988;55.776;37.544;2023-08-01T10:49:56;6.22;;;3.03;;
74503;SDS011;62988;55.776;37.544;2023-08-01T10:52:22;6.63;;;3.40;;
74503;SDS011;62988;55.776;37.544;2023-08-01T10:54:56;6.57;;;3.08;;
74503;SDS011;62988;55.776;37.544;2023-08-01T10:57:22;5.72;;;3.08;;
74503;SDS011;62988;55.776;37.544;2023-08-01T10:59:48;5.40;;;2.97;;
74503;SDS011;62988;55.776;37.544;2023-08-01T11:02:19;5.70;;;3.40;;
74503;SDS011;62988;55.776;37.544;2023-08-01T11:04:44;5.78;;;3.00;;
74503;SDS011;62988;55.776;37.544;2023-08-01T11:07:19;6.25;;;3.05;;
74503;SDS011;62988;55.776;37.544;2023-08-01T11:09:44;5.27;;;3.33;;
74503;SDS011;62988;55.776;37.544;2023-08-01T11:12:10;5.27;;;3.60;;
74503;SDS011;62988;55.776;37.544;2023-08-01T11:14:35;9.93;;;3.53;;
74503;SDS011;62988;55.776;37.544;2023-08-01T11:17:00;7.03;;;3.20;;
74503;SDS011;62988;55.776;37.544;2023-08-01T11:19:26;6.63;;;3.20;;
74503;SDS011;62988;55.776;37.544;2023-08-01T11:21:52;8.07;;;3.55;;
74503;SDS011;62988;55.776;37.544;2023-08-01T11:24:19;5.13;;;3.03;;
74503;SDS011;62988;55.776;37.544;2023-08-01T11:26:45;6.78;;;3.05;;
74503;SDS011;62988;55.776;37.544;2023-08-01T11:29:11;5.30;;;3.10;;
74503;SDS011;62988;55.776;37.544;2023-08-01T11:31:37;7.57;;;4.15;;
74503;SDS011;62988;55.776;37.544;2023-08-01T11:34:02;6.25;;;3.10;;
74503;SDS011;62988;55.776;37.544;2023-08-01T11:36:28;6.60;;;2.90;;
74503;SDS011;62988;55.776;37.544;2023-08-01T11:38:54;5.82;;;3.20;;
74503;SDS011;62988;55.776;37.544;2023-08-01T11:41:20;6.45;;;4.00;;
74503;SDS011;62988;55.776;37.544;2023-08-01T11:43:46;9.52;;;3.00;;
74503;SDS011;62988;55.776;37.544;2023-08-01T11:46:12;4.97;;;2.93;;
74503;SDS011;62988;55.776;37.544;2023-08-01T11:48:37;8.52;;;3.08;;
74503;SDS011;62988;55.776;37.544;2023-08-01T11:51:02;7.28;;;3.05;;
74503;SDS011;62988;55.776;37.544;2023-08-01T11:53:28;7.53;;;3.30;;
74503;SDS011;62988;55.776;37.544;2023-08-01T11:55:54;6.55;;;3.25;;
74503;SDS011;62988;55.776;37.544;2023-08-01T11:58:34;8.57;;;2.97;;
74503;SDS011;62988;55.776;37.544;2023-08-01T12:01:18;5.93;;;3.25;;
74503;SDS011;62988;55.776;37.544;2023-08-01T12:03:47;5.43;;;2.90;;
74503;SDS011;62988;55.776;37.544;2023-08-01T12:06:13;6.90;;;2.70;;
74503;SDS011;62988;55.776;37.544;2023-08-01T12:08:40;4.60;;;2.83;;
74503;SDS011;62988;55.776;37.544;2023-08-01T12:11:16;12.15;;;3.38;;
74503;SDS011;62988;55.776;37.544;2023-08-01T12:13:42;6.10;;;3.08;;
74503;SDS011;62988;55.776;37.544;2023-08-01T12:16:07;9.88;;;2.60;;
74503;SDS011;62988;55.776;37.544;2023-08-01T12:18:32;8.20;;;2.97;;
74503;SDS011;62988;55.776;37.544;2023-08-01T12:20:58;11.32;;;3.75;;
74503;SDS011;62988;55.776;37.544;2023-08-01T12:23:23;5.47;;;3.30;;
74503;SDS011;62988;55.776;37.544;2023-08-01T12:25:48;8.05;;;3.03;;
74503;SDS011;62988;55.776;37.544;2023-08-01T12:28:14;6.07;;;2.83;;
74503;SDS011;62988;55.776;37.544;2023-08-01T12:30:40;7.90;;;2.92;;
74503;SDS011;62988;55.776;37.544;2023-08-01T12:33:07;6.10;;;3.28;;
74503;SDS011;62988;55.776;37.544;2023-08-01T12:35:32;7.25;;;2.83;;
74503;SDS011;62988;55.776;37.544;2023-08-01T12:37:58;9.35;;;3.60;;
74503;SDS011;62988;55.776;37.544;2023-08-01T12:40:23;4.88;;;3.30;;
74503;SDS011;62988;55.776;37.544;2023-08-01T12:42:48;3.83;;;2.70;;
74503;SDS011;62988;55.776;37.544;2023-08-01T12:45:14;4.28;;;2.88;;
74503;SDS011;62988;55.776;37.544;2023-08-01T12:47:39;7.60;;;3.40;;
74503;SDS011;62988;55.776;37.544;2023-08-01T12:50:04;9.47;;;3.57;;
74503;SDS011;62988;55.776;37.544;2023-08-01T12:52:30;6.97;;;3.22;;
74503;SDS011;62988;55.776;37.544;2023-08-01T12:54:55;6.90;;;3.30;;
74503;SDS011;62988;55.776;37.544;2023-08-01T12:57:21;6.82;;;3.45;;
74503;SDS011;62988;55.776;37.544;2023-08-01T12:59:46;7.18;;;3.50;;
74503;SDS011;62988;55.776;37.544;2023-08-01T13:02:12;6.45;;;3.60;;
74503;SDS011;62988;55.776;37.544;2023-08-01T13:04:37;8.23;;;3.55;;
74503;SDS011;62988;55.776;37.544;2023-08-01T13:07:03;6.63;;;3.10;;
74503;SDS011;62988;55.776;37.544;2023-08-01T13:09:28;12.93;;;3.53;;
74503;SDS011;62988;55.776;37.544;2023-08-01T13:11:53;7.87;;;3.17;;
74503;SDS011;62988;55.776;37.544;2023-08-01T13:14:19;9.57;;;3.67;;
74503;SDS011;62988;55.776;37.544;2023-08-01T13:16:44;5.07;;;3.27;;
74503;SDS011;62988;55.776;37.544;2023-08-01T13:19:09;6.73;;;3.67;;
74503;SDS011;62988;55.776;37.544;2023-08-01T13:21:35;6.97;;;3.77;;
74503;SDS011;62988;55.776;37.544;2023-08-01T13:24:00;6.90;;;2.78;;
74503;SDS011;62988;55.776;37.544;2023-08-01T13:26:30;7.93;;;3.30;;
74503;SDS011;62988;55.776;37.544;2023-08-01T13:28:56;6.28;;;3.35;;
74503;SDS011;62988;55.776;37.544;2023-08-01T13:31:21;9.70;;;3.77;;
74503;SDS011;62988;55.776;37.544;2023-08-01T13:33:46;9.67;;;3.23;;
74503;SDS011;62988;55.776;37.544;2023-08-01T13:36:12;11.90;;;3.65;;
74503;SDS011;62988;55.776;37.544;2023-08-01T13:38:37;7.77;;;3.43;;
74503;SDS011;62988;55.776;37.544;2023-08-01T13:41:02;8.43;;;3.33;;
74503;SDS011;62988;55.776;37.544;2023-08-01T13:43:28;6.07;;;3.40;;
74503;SDS011;62988;55.776;37.544;2023-08-01T13:45:53;6.23;;;3.60;;
74503;SDS011;62988;55.776;37.544;2023-08-01T13:48:19;6.63;;;3.33;;
74503;SDS011;62988;55.776;37.544;2023-08-01T13:50:44;12.10;;;4.03;;
74503;SDS011;62988;55.776;37.544;2023-08-01T13:53:09;7.13;;;3.63;;
74503;SDS011;62988;55.776;37.544;2023-08-01T13:55:39;9.73;;;3.80;;
74503;SDS011;62988;55.776;37.544;2023-08-01T13:58:04;5.63;;;3.45;;
74503;SDS011;62988;55.776;37.544;2023-08-01T14:00:30;10.43;;;3.38;;
74503;SDS011;62988;55.776;37.544;2023-08-01T14:02:55;5.45;;;2.92;;
74503;SDS011;62988;55.776;37.544;2023-08-01T14:05:24;8.15;;;2.78;;
74503;SDS011;62988;55.776;37.544;2023-08-01T14:07:49;10.27;;;3.28;;
74503;SDS011;62988;55.776;37.544;2023-08-01T14:10:14;6.63;;;3.30;;
74503;SDS011;62988;55.776;37.544;2023-08-01T14:12:40;7.10;;;3.47;;
74503;SDS011;62988;55.776;37.544;2023-08-01T14:15:05;6.87;;;3.20;;
74503;SDS011;62988;55.776;37.544;2023-08-01T14:17:31;7.07;;;3.00;;
74503;SDS011;62988;55.776;37.544;2023-08-01T14:19:56;7.17;;;3.43;;